Jason Joseph — WDH6770 — position and weather

sailwx.info

Track history (hours):
 
Tides and Currents Weather Stations Pressure Air Temp Water Temp Dewpoint Dewpoint Depression Visibility Wind Speed Wind Dir Waves Ship Positions

Jason Joseph

Owner: Crosby Marine Transportation, LLC, Galliano, LA. More information available from US FCC via Universal Licensing System and Coast Guard Vessel Documentation Center.

Last reported at 2017-Oct-22 21:45 UTC. Time now 2017-Oct-22 23:01 UTC.
Position N 29°49' W 095°05'.

Length 23 m; draft 2 m.

Type: Towing. MMSI: 366991080.

Date/timePositionNaut miles runAvg speedWind from/ knotsBaromVisibWave heightAir tempDewpointWater temp
2017-Oct-22 21:45N 29°49' W 095°05'0 0.0
2017-Oct-22 07:53N 29°49' W 095°05'4 2.1
2017-Oct-22 06:12N 29°46' W 095°05'2 5.4
2017-Oct-22 05:53N 29°45' W 095°06'2 5.0
2017-Oct-22 05:30N 29°44' W 095°08'1 2.2
2017-Oct-22 05:00N 29°44' W 095°09'0 0.1
2017-Oct-22 04:25N 29°44' W 095°09'0 0.0
2017-Oct-22 04:00N 29°44' W 095°09'0 0.0
2017-Oct-22 03:30N 29°44' W 095°09'0 0.3
2017-Oct-22 02:57N 29°44' W 095°09'7 0.8
2017-Oct-21 19:05N 29°49' W 095°05'0 4.0
2017-Oct-21 18:58N 29°49' W 095°05'0 0.0
2017-Oct-20 23:34N 29°49' W 095°05'0 0.0
2017-Oct-20 05:10N 29°49' W 095°05'2 0.1
2017-Oct-18 06:34N 29°47' W 095°04'1 3.9
2017-Oct-18 06:18N 29°46' W 095°05'2 6.3
2017-Oct-18 06:00N 29°45' W 095°06'3 5.5
2017-Oct-18 05:31N 29°44' W 095°09'2 3.3
2017-Oct-18 05:00N 29°44' W 095°08'2 1.2
2017-Oct-18 03:31N 29°46' W 095°06'0 3.9
2017-Oct-18 03:29N 29°46' W 095°06'4 1.1
2017-Oct-18 00:08N 29°49' W 095°05'0 0.0
2017-Oct-17 07:01N 29°49' W 095°05'0 5.5
2017-Oct-17 06:59N 29°49' W 095°05'  
Track history (hours):
 
Tides and Currents Weather Stations Pressure Air Temp Water Temp Dewpoint Dewpoint Depression Visibility Wind Speed Wind Dir Waves Ship Positions

Jason Joseph

Owner: Crosby Marine Transportation, LLC, Galliano, LA. More information available from US FCC via Universal Licensing System and Coast Guard Vessel Documentation Center.

Last reported at 2017-Oct-22 21:45 UTC. Time now 2017-Oct-22 23:01 UTC.
Position N 29°49' W 095°05'.

Length 23 m; draft 2 m.

Type: Towing. MMSI: 366991080.

Date/timePositionNaut miles runAvg speedWind from/ knotsBaromVisibWave heightAir tempDewpointWater temp
2017-Oct-22 21:45N 29°49' W 095°05'0 0.0
2017-Oct-22 07:53N 29°49' W 095°05'4 2.1
2017-Oct-22 06:12N 29°46' W 095°05'2 5.4
2017-Oct-22 05:53N 29°45' W 095°06'2 5.0
2017-Oct-22 05:30N 29°44' W 095°08'1 2.2
2017-Oct-22 05:00N 29°44' W 095°09'0 0.1
2017-Oct-22 04:25N 29°44' W 095°09'0 0.0
2017-Oct-22 04:00N 29°44' W 095°09'0 0.0
2017-Oct-22 03:30N 29°44' W 095°09'0 0.3
2017-Oct-22 02:57N 29°44' W 095°09'7 0.8
2017-Oct-21 19:05N 29°49' W 095°05'0 4.0
2017-Oct-21 18:58N 29°49' W 095°05'0 0.0
2017-Oct-20 23:34N 29°49' W 095°05'0 0.0
2017-Oct-20 05:10N 29°49' W 095°05'2 0.1
2017-Oct-18 06:34N 29°47' W 095°04'1 3.9
2017-Oct-18 06:18N 29°46' W 095°05'2 6.3
2017-Oct-18 06:00N 29°45' W 095°06'3 5.5
2017-Oct-18 05:31N 29°44' W 095°09'2 3.3
2017-Oct-18 05:00N 29°44' W 095°08'2 1.2
2017-Oct-18 03:31N 29°46' W 095°06'0 3.9
2017-Oct-18 03:29N 29°46' W 095°06'4 1.1
2017-Oct-18 00:08N 29°49' W 095°05'0 0.0
2017-Oct-17 07:01N 29°49' W 095°05'0 5.5
2017-Oct-17 06:59N 29°49' W 095°05'  

Dump ship's entire track history